METAR Data
IDs: Format: Raw Decoded Include TAF

Data at: 1743 UTC 21 Sep 2018

KF44 211735Z AUTO 16006KT 10SM BKN020 BKN025 OVC120 28/24 A2997 RMK AO2 LTG DSNT E
KF44 211715Z AUTO 17007KT 10SM SCT019 BKN028 BKN110 28/24 A2998 RMK AO2
KF44 211655Z AUTO 15006KT 10SM SCT017 BKN023 OVC120 28/24 A2999 RMK AO2
KF44 211635Z AUTO 14005KT 10SM BKN017 BKN023 OVC120 28/24 A2999 RMK AO2 LTG DSNT SE
KF44 211615Z AUTO 16006KT 10SM BKN017 BKN026 OVC120 27/24 A2999 RMK AO2
KF44 211555Z AUTO 17011G15KT 10SM BKN017 OVC021 27/24 A2999 RMK AO2
KF44 211535Z AUTO 17008KT 10SM OVC015 27/25 A2999 RMK AO2
KF44 211515Z AUTO 16006KT 10SM BKN013 BKN019 OVC100 27/24 A2999 RMK AO2
KF44 211455Z AUTO 17010G15KT 10SM BKN010 BKN015 BKN100 27/24 A2998 RMK AO2
KF44 211435Z AUTO 15007KT 10SM OVC008 26/25 A2998 RMK AO2
KF44 211415Z AUTO 14007KT 10SM BKN008 26/24 A2997 RMK AO2
KF44 211355Z AUTO 14004KT 10SM SCT008 25/24 A2997 RMK AO2
KF44 211335Z AUTO 14004KT 10SM SCT014 25/24 A2997 RMK AO2
KF44 211315Z AUTO 16003KT 10SM SCT014 BKN100 24/23 A2997 RMK AO2
KF44 211255Z AUTO 14003KT 10SM BKN014 OVC110 24/23 A2997 RMK AO2
KF44 211235Z AUTO 13003KT 10SM SCT014 BKN120 23/23 A2996 RMK AO2
KF44 211215Z AUTO 00000KT 10SM SCT014 BKN110 23/23 A2996 RMK AO2
KF44 211155Z AUTO 00000KT 10SM SCT110 23/23 A2996 RMK AO2
KF44 211135Z AUTO 00000KT 10SM SCT090 SCT120 23/23 A2996 RMK AO2
KF44 211115Z AUTO 00000KT 10SM CLR 23/23 A2996 RMK AO2
KF44 211055Z AUTO 13003KT 10SM SCT100 23/23 A2995 RMK AO2
KF44 211035Z AUTO 13003KT 10SM SCT100 23/23 A2995 RMK AO2
KF44 211015Z AUTO 13003KT 10SM SCT100 23/23 A2995 RMK AO2
KF44 210955Z AUTO 12004KT 10SM BKN100 BKN120 23/23 A2995 RMK AO2
KF44 210935Z AUTO 00000KT 10SM SCT110 23/23 A2995 RMK AO2
KF44 210915Z AUTO 00000KT 10SM OVC110 24/23 A2995 RMK AO2
KF44 210855Z AUTO 00000KT 10SM OVC100 24/23 A2995 RMK AO2
KF44 210835Z AUTO 00000KT 10SM OVC100 24/23 A2995 RMK AO2
KF44 210815Z AUTO 00000KT 10SM OVC100 24/23 A2994 RMK AO2
KF44 210755Z AUTO 00000KT 10SM OVC100 24/23 A2994 RMK AO2
KF44 210735Z AUTO 14003KT 10SM OVC110 24/23 A2994 RMK AO2
KF44 210715Z AUTO 00000KT 10SM OVC110 24/23 A2994 RMK AO2
KF44 210655Z AUTO 14003KT 10SM -DZ OVC110 24/23 A2995 RMK AO2
KF44 210635Z AUTO 15004KT 10SM OVC120 24/23 A2995 RMK AO2
KF44 210615Z AUTO 15003KT 10SM OVC120 24/23 A2995 RMK AO2
KF44 210555Z AUTO 00000KT 10SM OVC110 25/23 A2995 RMK AO2
KF44 210535Z AUTO 00000KT 10SM OVC110 24/23 A2996 RMK AO2
KF44 210515Z AUTO 00000KT 10SM OVC110 24/23 A2996 RMK AO2
KF44 210455Z AUTO 00000KT 10SM SCT022 BKN110 25/23 A2996 RMK AO2
KF44 210435Z AUTO 15004KT 10SM SCT100 SCT120 25/23 A2996 RMK AO2
KF44 210415Z AUTO 18004KT 10SM -RA SCT025 SCT035 OVC100 25/23 A2997 RMK AO2
KF44 210355Z AUTO 00000KT 10SM SCT027 SCT034 BKN110 25/23 A2996 RMK AO2
KF44 210335Z AUTO 16004KT 10SM SCT029 BKN055 BKN070 25/24 A2996 RMK AO2
KF44 210315Z AUTO 00000KT 10SM BKN050 25/24 A2996 RMK AO2
KF44 210255Z AUTO 00000KT 10SM CLR 24/24 A2996 RMK AO2
KF44 210235Z AUTO 00000KT 10SM CLR 24/24 A2996 RMK AO2
KF44 210215Z AUTO 00000KT 10SM SCT110 24/24 A2995 RMK AO2
KF44 210155Z AUTO 00000KT 7SM SCT110 24/24 A2994 RMK AO2
KF44 210135Z AUTO 00000KT 7SM SCT110 24/24 A2994 RMK AO2 LTG DSNT SE
KF44 210115Z AUTO 00000KT 10SM CLR 24/24 A2994 RMK AO2
KF44 210055Z AUTO 00000KT 10SM CLR 25/24 A2993 RMK AO2 LTG DSNT SE
KF44 210035Z AUTO 00000KT 10SM CLR 25/24 A2991 RMK AO2 LTG DSNT SE AND NW
KF44 210015Z AUTO 16003KT 10SM CLR 25/24 A2991 RMK AO2 LTG DSNT ALQS
KF44 202355Z AUTO 16005KT 10SM TS SCT090 SCT120 25/24 A2990 RMK AO2 LTG DSNT W THRU N P0002
KF44 202335Z AUTO 17004KT 10SM -VCTSRA SCT047 SCT060 BKN090 25/24 A2990 RMK AO2 LTG DSNT W THRU NE P0002
KF44 202315Z AUTO 17010G16KT 10SM VCTSRA SCT047 BKN055 OVC080 25/23 A2991 RMK AO2 LTG DSNT NE SW AND W P0001
KF44 202255Z AUTO 19006G21KT 2 1/2SM +RA SCT047 BKN060 27/22 A2990 RMK AO2 VIS 1/2V5 LTG DSNT NE AND SW P0005
KF44 202235Z AUTO 14009KT 10SM SCT050 SCT065 31/21 A2989 RMK AO2 LTG DSNT NE AND SW
KF44 202215Z AUTO 16005KT 10SM SCT050 SCT065 32/21 A2989 RMK AO2 LTG DSNT S
KF44 202155Z AUTO 16006KT 10SM SCT050 31/20 A2989 RMK AO2 LTG DSNT S
KF44 202135Z AUTO 17011G15KT 10SM SCT050 33/20 A2989 RMK AO2
KF44 202115Z AUTO 18008KT 10SM CLR 33/20 A2990 RMK AO2
KF44 202055Z AUTO 16006KT 10SM CLR 32/20 A2990 RMK AO2
KF44 202035Z AUTO 16009KT 10SM CLR 33/20 A2991 RMK AO2
KF44 202015Z AUTO 16009KT 120V180 10SM CLR 32/20 A2992 RMK AO2
KF44 201955Z AUTO 16010KT 10SM SCT042 SCT049 SCT070 32/21 A2993 RMK AO2 LTG DSNT SW
KF44 201935Z AUTO 21005KT 3SM HZ SCT041 SCT060 32/21 A2993 RMK AO2
KF44 201915Z AUTO 15010G14KT 10SM SCT043 BKN050 BKN060 31/21 A2994 RMK AO2
KF44 201855Z AUTO 18008KT 10SM SCT041 SCT048 32/21 A2995 RMK AO2
KF44 201835Z AUTO 17005KT 10SM CLR 31/21 A2995 RMK AO2
KF44 201815Z AUTO 18006KT 10SM SCT038 SCT043 31/21 A2996 RMK AO2
KF44 201755Z AUTO 14005KT 10SM BKN036 31/21 A2997 RMK AO2
KF44 201735Z AUTO 14008G14KT 10SM BKN036 30/21 A2998 RMK AO2
KF44 201715Z AUTO 15006KT 10SM SCT034 31/21 A2999 RMK AO2
KF44 201655Z AUTO 15007KT 10SM SCT032 SCT039 30/21 A2999 RMK AO2
KF44 201635Z AUTO 14007KT 10SM SCT028 BKN035 30/21 A3000 RMK AO2
KF44 201615Z AUTO 16007KT 10SM BKN028 OVC033 30/22 A3000 RMK AO2
KF44 201555Z AUTO 20005KT 10SM BKN022 BKN029 29/22 A3000 RMK AO2
KF44 201535Z AUTO 00000KT 10SM SCT020 BKN025 29/22 A3000 RMK AO2
KF44 201515Z AUTO 16005KT 10SM SCT016 SCT021 28/23 A2999 RMK AO2
KF44 201455Z AUTO 22003KT 10SM SCT014 27/23 A2999 RMK AO2
KF44 201435Z AUTO 00000KT 10SM SCT012 27/23 A2999 RMK AO2
KF44 201415Z AUTO 18004KT 10SM CLR 26/23 A2998 RMK AO2
KF44 201355Z AUTO 17005KT 10SM CLR 25/23 A2998 RMK AO2
KF44 201335Z AUTO 00000KT 10SM CLR 25/23 A2998 RMK AO2
KF44 201315Z AUTO 00000KT 10SM CLR 23/22 A2997 RMK AO2
KF44 201255Z AUTO 00000KT 7SM CLR 22/22 A2997 RMK AO2
KF44 201235Z AUTO 00000KT 7SM CLR 22/21 A2996 RMK AO2
KF44 201215Z AUTO 00000KT 7SM CLR 22/22 A2996 RMK AO2
KF44 201155Z AUTO 00000KT 7SM CLR 22/22 A2995 RMK AO2
KF44 201135Z AUTO 00000KT 10SM CLR 22/21 A2995 RMK AO2
KF44 201115Z AUTO 00000KT 10SM CLR 22/22 A2994 RMK AO2
KF44 201055Z AUTO 00000KT 10SM CLR 22/22 A2994 RMK AO2
KF44 201035Z AUTO 00000KT 10SM CLR 22/22 A2994 RMK AO2
KF44 201015Z AUTO 00000KT 10SM CLR 23/22 A2994 RMK AO2
KF44 200955Z AUTO 00000KT 10SM CLR 23/22 A2993 RMK AO2
KF44 200935Z AUTO 00000KT 10SM CLR 23/22 A2992 RMK AO2
KF44 200915Z AUTO 15003KT 10SM CLR 23/22 A2993 RMK AO2
KF44 200855Z AUTO 00000KT 10SM CLR 24/22 A2992 RMK AO2
KF44 200835Z AUTO 18004KT 10SM CLR 24/21 A2993 RMK AO2
KF44 200815Z AUTO 19003KT 10SM CLR 23/21 A2993 RMK AO2
KF44 200755Z AUTO 18003KT 10SM CLR 24/21 A2993 RMK AO2
KF44 200735Z AUTO 14003KT 10SM CLR 24/21 A2994 RMK AO2
KF44 200715Z AUTO 19003KT 10SM CLR 24/21 A2994 RMK AO2
KF44 200655Z AUTO 17004KT 10SM CLR 25/21 A2994 RMK AO2
KF44 200635Z AUTO 17003KT 10SM CLR 25/21 A2995 RMK AO2
KF44 200615Z AUTO 15003KT 10SM CLR 25/21 A2996 RMK AO2
KF44 200555Z AUTO 15003KT 10SM CLR 25/21 A2996 RMK AO2